Terminal Aerodrome Forecast
Issued by NWS

Home | Current Version | Previous Version | Text Only | Print | Product List | Glossary On
Versions: 1 2 3 4 5 6 7 8 9 10 11 12 13 14 15 16 17 18 19 20 21 22 23
000
FTUS41 KBOX 190541 AAA
TAFBED
TAF AMD
KBED 190541Z 1906/2006 VRB03KT P6SM SKC
     FM191200 27007KT P6SM FEW250
     FM192200 25006KT P6SM SCT200
     FM200400 22005KT P6SM BKN200=

USA.gov is the U.S. government's official web portal to all federal, state and local government web resources and services.